Time;durP1;ratioP1;P1;durP2;ratioP2;P2;SDS_P1;SDS_P2;PMS_P1;PMS_P2;Temp;Humidity;BMP_temperature;BMP_pressure;BME280_temperature;BME280_humidity;BME280_pressure;Samples;Min_cycle;Max_cycle;Signal;HPM_P1;HPM_P2
2023/03/19 00:00:31;;;;;;;15.37;13.87;;;;;;;4.82;100.00;96720.41;5013975;28;20241;-71
2023/03/19 00:02:59;;;;;;;16.40;14.80;;;;;;;4.81;100.00;96716.16;5029599;28;20227;-71
2023/03/19 00:05:27;;;;;;;15.93;14.30;;;;;;;4.80;100.00;96719.75;5016283;28;20792;-71
2023/03/19 00:07:55;;;;;;;16.87;15.23;;;;;;;4.71;100.00;96711.03;5032727;28;20342;-71
2023/03/19 00:10:23;;;;;;;16.80;15.20;;;;;;;4.69;100.00;96723.47;5025396;28;20213;-71
2023/03/19 00:12:51;;;;;;;15.63;14.13;;;;;;;4.66;100.00;96715.09;5037613;28;20205;-71
2023/03/19 00:15:20;;;;;;;15.47;14.03;;;;;;;4.50;100.00;96687.81;5008133;28;20215;-72
2023/03/19 00:17:48;;;;;;;16.77;13.90;;;;;;;4.53;100.00;96715.53;5011121;28;20232;-71
2023/03/19 00:20:17;;;;;;;15.07;13.33;;;;;;;4.44;100.00;96710.25;5020200;28;20386;-70
2023/03/19 00:22:45;;;;;;;15.53;14.20;;;;;;;4.51;100.00;96712.22;5030149;28;20271;-71
2023/03/19 00:25:12;;;;;;;15.27;13.80;;;;;;;4.34;100.00;96699.06;5042015;28;20320;-70
2023/03/19 00:27:40;;;;;;;16.50;14.77;;;;;;;4.47;100.00;96717.00;5039206;28;20218;-71
2023/03/19 00:30:10;;;;;;;16.47;14.77;;;;;;;4.48;100.00;96710.75;5018517;28;20214;-71
2023/03/19 00:32:39;;;;;;;15.83;14.30;;;;;;;4.46;100.00;96718.78;4997452;28;20754;-73
2023/03/19 00:35:08;;;;;;;16.33;14.50;;;;;;;4.40;100.00;96708.91;5040363;28;20198;-72
2023/03/19 00:37:37;;;;;;;16.20;14.60;;;;;;;4.39;100.00;96720.38;5011551;28;20227;-72
2023/03/19 00:40:06;;;;;;;15.80;14.20;;;;;;;4.37;100.00;96718.91;5043092;28;20200;-70
2023/03/19 00:42:34;;;;;;;15.07;13.57;;;;;;;4.35;100.00;96722.47;5036501;28;20676;-72
2023/03/19 00:45:02;;;;;;;13.93;12.50;;;;;;;4.38;100.00;96715.31;5042357;28;20749;-71
2023/03/19 00:47:30;;;;;;;13.80;12.33;;;;;;;4.39;100.00;96719.56;4964763;28;20222;-72
2023/03/19 00:49:59;;;;;;;12.60;11.40;;;;;;;4.39;100.00;96728.25;5037003;28;20980;-72
2023/03/19 00:52:26;;;;;;;13.80;12.50;;;;;;;4.42;100.00;96727.94;4997706;28;20220;-72
2023/03/19 00:54:54;;;;;;;13.37;12.17;;;;;;;4.43;100.00;96729.59;5032830;28;20210;-73
2023/03/19 00:57:22;;;;;;;13.20;12.03;;;;;;;4.44;100.00;96722.56;5036424;28;20233;-72
2023/03/19 00:59:49;;;;;;;13.00;11.77;;;;;;;4.44;100.00;96719.94;5037170;28;20203;-70
2023/03/19 01:02:17;;;;;;;13.13;11.83;;;;;;;4.44;100.00;96715.50;4987997;28;20633;-72
2023/03/19 01:04:47;;;;;;;15.43;13.80;;;;;;;4.43;100.00;96715.66;5023196;28;20200;-71
2023/03/19 01:07:16;;;;;;;14.47;13.17;;;;;;;4.36;100.00;96712.81;4954060;28;1249215;-72
2023/03/19 01:09:44;;;;;;;14.97;13.47;;;;;;;4.28;100.00;96713.59;5031606;28;20902;-72
2023/03/19 01:12:12;;;;;;;14.03;12.73;;;;;;;4.27;100.00;96706.72;5035577;28;20214;-72
2023/03/19 01:14:40;;;;;;;14.33;12.93;;;;;;;4.18;100.00;96708.50;5027712;28;20222;-72
2023/03/19 01:17:07;;;;;;;13.20;11.87;;;;;;;4.13;100.00;96715.16;4997497;28;20218;-70
2023/03/19 01:19:35;;;;;;;13.50;12.27;;;;;;;4.14;100.00;96719.44;5035229;28;20756;-72
2023/03/19 01:22:03;;;;;;;13.73;12.40;;;;;;;4.13;100.00;96720.41;5036596;28;20211;-71
2023/03/19 01:24:32;;;;;;;12.23;10.73;;;;;;;4.07;100.00;96721.84;5011123;28;20213;-72
2023/03/19 01:27:00;;;;;;;11.77;10.77;;;;;;;4.04;100.00;96716.91;5038442;28;20772;-70
2023/03/19 01:29:27;;;;;;;12.00;10.80;;;;;;;4.03;100.00;96720.50;5035448;28;20237;-72
2023/03/19 01:31:56;;;;;;;12.57;11.40;;;;;;;4.00;100.00;96716.41;5032699;28;20198;-71
2023/03/19 01:34:23;;;;;;;12.33;11.23;;;;;;;3.93;100.00;96722.41;5008032;28;20214;-72
2023/03/19 01:36:51;;;;;;;11.50;10.40;;;;;;;3.95;100.00;96718.66;5034529;28;20222;-71
2023/03/19 01:39:19;;;;;;;14.23;11.77;;;;;;;3.91;100.00;96727.78;5017931;28;20305;-72
2023/03/19 01:41:48;;;;;;;12.30;11.10;;;;;;;3.97;100.00;96721.94;5037541;28;20218;-71
2023/03/19 01:44:26;;;;;;;12.37;11.27;;;;;;;3.96;100.00;96728.16;5036045;28;20219;-71
2023/03/19 01:46:54;;;;;;;12.20;10.97;;;;;;;3.96;100.00;96719.47;5037496;28;20227;-71
2023/03/19 01:49:23;;;;;;;11.87;10.70;;;;;;;3.93;100.00;96715.34;4980899;28;20233;-72
2023/03/19 01:51:51;;;;;;;13.07;11.27;;;;;;;3.94;100.00;96717.00;5035252;28;20222;-71
2023/03/19 01:54:21;;;;;;;13.60;12.40;;;;;;;3.91;100.00;96712.91;5034703;28;20211;-73
2023/03/19 01:56:53;;;;;;;12.77;11.17;;;;;;;3.95;100.00;96710.78;5055844;28;20227;-72
2023/03/19 01:59:25;;;;;;;12.40;10.90;;;;;;;3.84;100.00;96708.41;5052706;28;20211;-72
2023/03/19 02:01:56;;;;;;;12.23;11.03;;;;;;;3.79;100.00;96713.28;5031440;28;20199;-71
2023/03/19 02:04:26;;;;;;;11.40;10.30;;;;;;;3.72;100.00;96716.53;4997569;28;20210;-72
2023/03/19 02:06:54;;;;;;;11.83;10.73;;;;;;;3.69;100.00;96711.59;5040836;28;20313;-72
2023/03/19 02:09:24;;;;;;;12.20;11.03;;;;;;;3.61;100.00;96712.34;5036505;28;20250;-72
2023/03/19 02:11:54;;;;;;;12.43;11.30;;;;;;;3.59;100.00;96722.16;5023848;28;21546;-72
2023/03/19 02:14:22;;;;;;;12.10;11.00;;;;;;;3.59;100.00;96730.00;5040697;28;20210;-73
2023/03/19 02:16:50;;;;;;;14.03;12.63;;;;;;;3.55;100.00;96720.81;5033707;28;20249;-71
2023/03/19 02:19:22;;;;;;;11.90;10.67;;;;;;;3.54;100.00;96719.16;4991234;28;20230;-71
2023/03/19 02:21:50;;;;;;;10.90;9.83;;;;;;;3.52;100.00;96728.13;5047071;28;20233;-69
2023/03/19 02:24:22;;;;;;;11.63;10.53;;;;;;;3.50;100.00;96723.06;5040012;28;20217;-71
2023/03/19 02:26:51;;;;;;;11.60;10.60;;;;;;;3.50;100.00;96724.84;5018660;28;20227;-70
2023/03/19 02:29:19;;;;;;;12.50;11.33;;;;;;;3.47;100.00;96728.63;5038599;28;20199;-71
2023/03/19 02:31:47;;;;;;;11.30;10.30;;;;;;;3.45;100.00;96736.59;5019115;28;20226;-71
2023/03/19 02:34:37;;;;;;;11.13;10.07;;;;;;;3.43;100.00;96746.41;4987645;28;20384;-71
2023/03/19 02:37:11;;;;;;;12.03;10.83;;;;;;;3.22;100.00;96740.63;5042759;28;20223;-71
2023/03/19 02:39:47;;;;;;;12.00;10.67;;;;;;;3.21;100.00;96750.28;5045300;28;20198;-70
2023/03/19 02:42:17;;;;;;;11.30;10.13;;;;;;;3.08;100.00;96752.47;5017622;28;20206;-71
2023/03/19 02:44:45;;;;;;;11.80;10.67;;;;;;;3.18;100.00;96763.69;5043925;28;20198;-71
2023/03/19 02:47:13;;;;;;;11.93;10.30;;;;;;;3.12;100.00;96738.91;5034253;28;20850;-71
2023/03/19 02:49:41;;;;;;;11.50;10.40;;;;;;;3.21;100.00;96749.44;5017610;28;21177;-71
2023/03/19 02:52:09;;;;;;;10.90;9.80;;;;;;;3.19;100.00;96750.44;4999613;28;20210;-71
2023/03/19 02:54:37;;;;;;;10.37;9.47;;;;;;;3.19;100.00;96755.66;5043816;28;20195;-71
2023/03/19 02:57:05;;;;;;;12.30;11.03;;;;;;;3.28;100.00;96742.69;5023222;28;20231;-71
2023/03/19 02:59:34;;;;;;;12.27;11.17;;;;;;;3.28;100.00;96745.28;5043051;28;20575;-71
2023/03/19 03:02:02;;;;;;;11.50;10.50;;;;;;;3.27;100.00;96747.06;5042033;28;20191;-71
2023/03/19 03:04:30;;;;;;;10.80;9.80;;;;;;;3.24;100.00;96736.91;5044684;28;20195;-70
2023/03/19 03:06:58;;;;;;;12.53;11.10;;;;;;;3.26;100.00;96737.56;5005172;28;20223;-71
2023/03/19 03:09:26;;;;;;;12.47;11.30;;;;;;;3.26;100.00;96736.75;5046182;28;20214;-71
2023/03/19 03:11:54;;;;;;;11.70;10.60;;;;;;;3.23;100.00;96737.06;5031683;28;20261;-72
2023/03/19 03:14:22;;;;;;;11.30;10.30;;;;;;;3.21;100.00;96741.59;5015852;28;20278;-72
2023/03/19 03:16:51;;;;;;;13.93;12.57;;;;;;;3.19;100.00;96744.38;5031254;28;21040;-72
2023/03/19 03:19:19;;;;;;;14.47;13.07;;;;;;;3.19;100.00;96747.00;5042165;28;20252;-72
2023/03/19 03:21:47;;;;;;;14.37;13.07;;;;;;;3.14;100.00;96750.06;4995247;28;20304;-73
2023/03/19 03:24:14;;;;;;;14.33;13.00;;;;;;;3.11;100.00;96758.19;5039877;28;20961;-72
2023/03/19 03:26:43;;;;;;;14.07;12.60;;;;;;;3.12;100.00;96753.81;5032566;28;20223;-73
2023/03/19 03:29:10;;;;;;;13.67;12.27;;;;;;;3.02;100.00;96754.66;5015501;28;20217;-72
2023/03/19 03:31:38;;;;;;;13.33;12.00;;;;;;;2.98;100.00;96742.03;5025137;28;20250;-72
2023/03/19 03:34:07;;;;;;;11.17;10.17;;;;;;;3.06;100.00;96749.97;5033657;28;21642;-71
2023/03/19 03:36:35;;;;;;;12.80;11.60;;;;;;;3.02;100.00;96753.84;5025881;28;20214;-73
2023/03/19 03:39:04;;;;;;;10.50;9.50;;;;;;;3.02;100.00;96759.09;5016293;28;20226;-72
2023/03/19 03:41:31;;;;;;;11.03;9.93;;;;;;;3.00;100.00;96768.88;5044208;28;20567;-71
2023/03/19 03:43:59;;;;;;;11.97;10.77;;;;;;;2.96;100.00;96770.16;5017943;28;20222;-71
2023/03/19 03:46:27;;;;;;;11.57;10.50;;;;;;;2.88;100.00;96782.19;5044872;28;20207;-71
2023/03/19 03:48:55;;;;;;;11.63;10.53;;;;;;;2.87;100.00;96780.53;5035513;28;20195;-71
2023/03/19 03:51:24;;;;;;;11.57;10.47;;;;;;;2.84;100.00;96798.31;5035576;28;20212;-71
2023/03/19 03:53:51;;;;;;;12.23;10.97;;;;;;;2.79;100.00;96783.03;5000956;28;20921;-72
2023/03/19 03:56:19;;;;;;;11.73;10.60;;;;;;;2.77;100.00;96790.19;5041021;28;20211;-72
2023/03/19 03:58:47;;;;;;;12.47;11.30;;;;;;;2.79;100.00;96801.34;5037494;28;20235;-72
2023/03/19 04:01:16;;;;;;;11.63;10.50;;;;;;;2.74;100.00;96791.31;5019554;28;20233;-70
2023/03/19 04:03:44;;;;;;;11.47;10.30;;;;;;;2.93;100.00;96810.50;5012603;28;20704;-72
2023/03/19 04:06:15;;;;;;;11.73;10.63;;;;;;;3.02;100.00;96814.06;5039210;28;20207;-72
2023/03/19 04:08:44;;;;;;;11.63;10.47;;;;;;;3.02;100.00;96809.63;4998550;28;20252;-72
2023/03/19 04:11:12;;;;;;;11.90;10.77;;;;;;;3.07;100.00;96808.41;5038014;28;20666;-70
2023/03/19 04:13:41;;;;;;;11.63;10.17;;;;;;;3.09;100.00;96807.25;5037454;28;20334;-71
2023/03/19 04:16:09;;;;;;;13.53;11.37;;;;;;;3.15;100.00;96806.69;5016547;28;20206;-71
2023/03/19 04:18:38;;;;;;;11.97;10.87;;;;;;;3.17;100.00;96807.34;5039109;28;21408;-72
2023/03/19 04:21:06;;;;;;;11.73;10.73;;;;;;;3.23;100.00;96803.34;5040215;28;20209;-71
2023/03/19 04:23:34;;;;;;;12.47;10.93;;;;;;;3.23;100.00;96800.72;5015918;28;20798;-72
2023/03/19 04:26:05;;;;;;;12.43;11.07;;;;;;;3.21;100.00;96804.44;5003269;28;20202;-71
2023/03/19 04:28:33;;;;;;;11.47;10.33;;;;;;;3.16;100.00;96800.47;5038778;28;20227;-71
2023/03/19 04:31:01;;;;;;;10.97;9.90;;;;;;;3.14;100.00;96796.38;5036232;28;20223;-71
2023/03/19 04:33:29;;;;;;;11.30;10.20;;;;;;;3.13;100.00;96802.56;5012107;28;20223;-71
2023/03/19 04:35:57;;;;;;;11.77;10.43;;;;;;;3.12;100.00;96793.88;5044498;28;20195;-72
2023/03/19 04:38:26;;;;;;;12.43;10.83;;;;;;;3.15;100.00;96792.78;5030366;28;20722;-71
2023/03/19 04:40:54;;;;;;;10.67;9.30;;;;;;;3.12;100.00;96803.53;4986487;28;20225;-73
2023/03/19 04:43:24;;;;;;;11.70;10.70;;;;;;;2.97;100.00;96784.88;5034217;28;20225;-72
2023/03/19 04:45:51;;;;;;;11.13;10.13;;;;;;;3.06;100.00;96799.69;5036753;28;20191;-72
2023/03/19 04:48:19;;;;;;;11.20;10.07;;;;;;;3.07;100.00;96800.53;5013214;28;20234;-72
2023/03/19 04:50:50;;;;;;;10.80;9.80;;;;;;;3.03;100.00;96798.22;5041426;28;20198;-72
2023/03/19 04:53:19;;;;;;;12.90;11.70;;;;;;;3.04;100.00;96797.25;5039266;28;20345;-72
2023/03/19 04:55:47;;;;;;;13.27;12.07;;;;;;;3.01;100.00;96800.13;4993514;28;20213;-72
2023/03/19 04:58:14;;;;;;;12.33;11.23;;;;;;;3.08;100.00;96810.03;5042935;28;20220;-72
2023/03/19 05:00:45;;;;;;;11.87;10.67;;;;;;;3.08;100.00;96813.47;5029797;28;20332;-74
2023/03/19 05:03:13;;;;;;;12.00;10.80;;;;;;;3.11;100.00;96815.78;5013695;28;20301;-74
2023/03/19 05:05:41;;;;;;;11.20;10.13;;;;;;;3.22;100.00;96812.16;5037981;28;20212;-72
2023/03/19 05:08:09;;;;;;;11.33;10.33;;;;;;;3.23;100.00;96810.38;5032861;28;20914;-71
2023/03/19 05:10:37;;;;;;;11.00;10.00;;;;;;;3.24;100.00;96818.06;5004568;28;20199;-72
2023/03/19 05:13:06;;;;;;;11.50;10.27;;;;;;;3.27;100.00;96814.34;5002408;28;20202;-74
2023/03/19 05:15:34;;;;;;;11.90;10.70;;;;;;;3.10;100.00;96795.81;5027445;28;20195;-74
2023/03/19 05:18:03;;;;;;;12.50;11.30;;;;;;;3.17;100.00;96811.78;5038201;28;20233;-73
2023/03/19 05:20:31;;;;;;;11.27;10.27;;;;;;;3.29;100.00;96821.06;5017223;28;20226;-73
2023/03/19 05:22:59;;;;;;;11.30;10.50;;;;;;;3.42;100.00;96825.16;5009854;28;20234;-75
2023/03/19 05:25:27;;;;;;;12.10;11.00;;;;;;;3.39;100.00;96820.19;5037516;28;20234;-74
2023/03/19 05:27:55;;;;;;;10.50;9.50;;;;;;;3.51;100.00;96823.41;4991511;28;20218;-74
2023/03/19 05:30:23;;;;;;;11.53;10.53;;;;;;;3.30;100.00;96824.53;5036159;28;20284;-74
2023/03/19 05:32:51;;;;;;;10.60;9.80;;;;;;;3.35;100.00;96822.28;5038005;28;20203;-72
2023/03/19 05:35:21;;;;;;;12.33;11.13;;;;;;;3.45;100.00;96827.47;5016998;28;20207;-73
2023/03/19 05:37:49;;;;;;;13.23;10.93;;;;;;;3.47;100.00;96828.94;5007665;28;20353;-74
2023/03/19 05:40:17;;;;;;;13.30;12.10;;;;;;;3.55;100.00;96835.25;5038099;28;20602;-72
2023/03/19 05:42:45;;;;;;;12.27;11.13;;;;;;;3.48;100.00;96829.78;4996089;28;20219;-72
2023/03/19 05:45:12;;;;;;;13.53;12.23;;;;;;;3.54;100.00;96833.59;5044296;28;20234;-72
2023/03/19 05:47:40;;;;;;;12.30;11.00;;;;;;;3.53;100.00;96851.13;5038340;28;21042;-72
2023/03/19 05:50:10;;;;;;;10.57;9.77;;;;;;;3.57;100.00;96860.34;5019117;28;20206;-74
2023/03/19 05:52:39;;;;;;;11.30;10.20;;;;;;;3.62;100.00;96862.53;5035634;28;21120;-74
2023/03/19 05:55:08;;;;;;;11.57;10.40;;;;;;;3.69;100.00;96866.19;5042097;28;20198;-72
2023/03/19 05:57:36;;;;;;;11.17;10.20;;;;;;;3.81;100.00;96868.59;5014332;28;20351;-72
2023/03/19 06:00:06;;;;;;;12.50;10.83;;;;;;;3.80;100.00;96869.56;5035187;28;20227;-72
2023/03/19 06:02:34;;;;;;;11.87;10.70;;;;;;;3.87;100.00;96862.75;5040070;28;20208;-73
2023/03/19 06:05:02;;;;;;;11.90;10.83;;;;;;;3.90;100.00;96862.44;5019828;28;20207;-71
2023/03/19 06:07:30;;;;;;;12.80;11.60;;;;;;;3.94;100.00;96860.34;5030044;28;20733;-72
2023/03/19 06:09:59;;;;;;;12.43;11.27;;;;;;;3.97;100.00;96866.09;5041067;28;20195;-72
2023/03/19 06:12:27;;;;;;;11.10;10.10;;;;;;;3.96;100.00;96859.22;5008592;28;20207;-73
2023/03/19 06:14:55;;;;;;;12.90;11.70;;;;;;;3.96;100.00;96853.97;4988856;28;20206;-69
2023/03/19 06:17:23;;;;;;;13.63;12.43;;;;;;;3.99;100.00;96851.09;5021157;28;20226;-74
2023/03/19 06:19:50;;;;;;;13.93;12.70;;;;;;;4.00;100.00;96855.34;5039966;28;20226;-72
2023/03/19 06:22:18;;;;;;;13.83;12.63;;;;;;;3.99;100.00;96853.69;5011390;28;20709;-73
2023/03/19 06:24:46;;;;;;;14.20;12.77;;;;;;;3.97;100.00;96850.38;5016138;28;20198;-71
2023/03/19 06:27:15;;;;;;;12.87;11.73;;;;;;;4.03;100.00;96854.22;5039044;28;20305;-71
2023/03/19 06:29:42;;;;;;;12.87;11.77;;;;;;;4.04;100.00;96850.63;5001320;28;20203;-72
2023/03/19 06:32:10;;;;;;;13.10;11.80;;;;;;;4.08;100.00;96856.38;5019178;28;20207;-72
2023/03/19 06:34:38;;;;;;;13.77;12.57;;;;;;;4.05;100.00;96858.34;5052115;28;20242;-72
2023/03/19 06:37:06;;;;;;;13.83;12.53;;;;;;;3.97;100.00;96873.97;5020657;28;20230;-73
2023/03/19 06:39:34;;;;;;;13.63;12.23;;;;;;;4.02;100.00;96879.63;5019459;28;20229;-72
2023/03/19 06:42:01;;;;;;;13.17;11.83;;;;;;;4.05;100.00;96879.31;5036978;28;20931;-69
2023/03/19 06:44:31;;;;;;;12.40;11.30;;;;;;;3.79;100.00;96884.47;5020454;28;20221;-72
2023/03/19 06:46:59;;;;;;;12.47;11.33;;;;;;;3.69;100.00;96892.41;5027410;28;20241;-71
2023/03/19 06:49:27;;;;;;;12.47;10.93;;;;;;;3.74;100.00;96899.78;5016403;28;20207;-71
2023/03/19 06:51:54;;;;;;;11.90;10.70;;;;;;;3.89;100.00;96894.88;5014006;28;20206;-70
2023/03/19 06:54:22;;;;;;;12.47;11.27;;;;;;;3.91;100.00;96906.88;5039572;28;20207;-70
2023/03/19 06:56:50;;;;;;;11.33;10.40;;;;;;;4.02;100.00;96907.63;5013837;28;20215;-71
2023/03/19 06:59:18;;;;;;;11.53;10.40;;;;;;;4.19;100.00;96912.06;4982501;28;20223;-72
2023/03/19 07:01:47;;;;;;;12.07;10.77;;;;;;;4.26;100.00;96921.94;4997002;28;22579;-70
2023/03/19 07:04:14;;;;;;;12.23;11.13;;;;;;;4.28;100.00;96906.88;5001692;28;20354;-69
2023/03/19 07:06:42;;;;;;;12.40;11.20;;;;;;;4.35;100.00;96913.16;5020477;28;21120;-70
2023/03/19 07:09:10;;;;;;;12.23;10.90;;;;;;;4.42;100.00;96913.38;5029116;28;20260;-70
2023/03/19 07:11:37;;;;;;;11.43;10.30;;;;;;;4.32;100.00;96916.91;5036655;28;21082;-69
2023/03/19 07:14:05;;;;;;;12.60;11.57;;;;;;;4.39;100.00;96921.56;5034373;28;20214;-70
2023/03/19 07:16:33;;;;;;;12.70;11.50;;;;;;;4.47;100.00;96925.06;5000766;28;20219;-69
2023/03/19 07:19:02;;;;;;;11.93;10.93;;;;;;;4.43;100.00;96928.16;5025034;28;20701;-70
2023/03/19 07:21:30;;;;;;;11.47;10.30;;;;;;;4.33;100.00;96944.78;5006299;28;20266;-69
2023/03/19 07:23:58;;;;;;;12.30;11.20;;;;;;;4.27;100.00;96948.00;5020233;28;20219;-69
2023/03/19 07:26:26;;;;;;;11.30;10.33;;;;;;;4.46;100.00;96941.78;5020328;28;20206;-68
2023/03/19 07:28:54;;;;;;;11.50;10.53;;;;;;;4.70;100.00;96944.75;4996701;28;20214;-68
2023/03/19 07:31:22;;;;;;;12.37;11.17;;;;;;;4.89;100.00;96944.56;4995445;28;21118;-69
2023/03/19 07:33:50;;;;;;;12.50;11.43;;;;;;;5.08;100.00;96950.56;5013652;28;20436;-69
2023/03/19 07:36:20;;;;;;;15.63;14.23;;;;;;;5.19;100.00;96950.34;5016368;28;20272;-69
2023/03/19 07:38:47;;;;;;;15.30;12.67;;;;;;;5.27;100.00;96951.34;5010698;28;21103;-69
2023/03/19 07:41:15;;;;;;;13.50;12.30;;;;;;;5.42;100.00;96962.91;5020574;28;20641;-70
2023/03/19 07:43:43;;;;;;;13.47;12.27;;;;;;;5.91;100.00;96956.22;5032427;28;20208;-70
2023/03/19 07:46:11;;;;;;;14.27;12.97;;;;;;;6.12;100.00;96957.59;5029879;28;20210;-71
2023/03/19 07:48:39;;;;;;;14.87;13.47;;;;;;;6.29;100.00;96945.31;4991380;28;20238;-68
2023/03/19 07:51:07;;;;;;;14.53;13.27;;;;;;;6.53;100.00;96941.88;5012971;28;20207;-68
2023/03/19 07:53:36;;;;;;;15.40;13.97;;;;;;;6.79;100.00;96933.00;5017422;28;20203;-69
2023/03/19 07:56:04;;;;;;;14.17;12.83;;;;;;;6.94;100.00;96920.78;5018452;28;20225;-71
2023/03/19 07:58:31;;;;;;;16.17;14.77;;;;;;;6.93;100.00;96929.66;5007903;28;20226;-68
2023/03/19 08:00:59;;;;;;;14.57;13.17;;;;;;;7.03;100.00;96933.94;5027731;28;20967;-69
2023/03/19 08:03:28;;;;;;;15.07;13.63;;;;;;;7.04;100.00;96927.69;4980490;28;20230;-69
2023/03/19 08:05:55;;;;;;;13.17;12.07;;;;;;;7.07;100.00;96936.06;5014002;28;20230;-68
2023/03/19 08:08:23;;;;;;;13.77;12.53;;;;;;;7.11;100.00;96936.56;5027617;28;20261;-68
2023/03/19 08:10:54;;;;;;;14.70;13.40;;;;;;;7.25;100.00;96935.06;5005985;28;20461;-69
2023/03/19 08:13:22;;;;;;;12.97;11.67;;;;;;;7.15;100.00;96934.41;5009561;28;20314;-69
2023/03/19 08:15:51;;;;;;;12.93;11.60;;;;;;;7.22;100.00;96930.13;5031184;28;20207;-69
2023/03/19 08:18:19;;;;;;;13.43;12.03;;;;;;;7.17;100.00;96922.72;4984430;28;20234;-69
2023/03/19 08:20:47;;;;;;;13.35;12.02;;;;;;;7.36;100.00;96931.22;4993937;28;20966;-66
2023/03/19 08:23:15;;;;;;;13.87;12.47;;;;;;;7.48;100.00;96932.50;5031843;28;20199;-65
2023/03/19 08:25:42;;;;;;;13.30;12.13;;;;;;;7.74;100.00;96934.03;5011698;28;20678;-67
2023/03/19 08:28:12;;;;;;;13.80;12.40;;;;;;;7.82;100.00;96935.81;4989111;28;20753;-68
2023/03/19 08:30:39;;;;;;;13.57;12.23;;;;;;;8.00;100.00;96935.56;5028051;28;20264;-69
2023/03/19 08:33:07;;;;;;;13.37;12.03;;;;;;;8.17;100.00;96935.47;4992322;28;20230;-70
2023/03/19 08:35:37;;;;;;;14.17;12.67;;;;;;;7.99;100.00;96926.00;5017932;28;20205;-69
2023/03/19 08:38:04;;;;;;;14.57;13.17;;;;;;;7.95;100.00;96951.91;5013314;28;20345;-70
2023/03/19 08:40:32;;;;;;;16.00;13.13;;;;;;;7.95;100.00;96943.16;5010355;28;21118;-70
2023/03/19 08:43:00;;;;;;;16.30;14.63;;;;;;;7.81;100.00;96942.91;5008450;28;20688;-70
2023/03/19 08:45:30;;;;;;;15.87;14.17;;;;;;;7.91;100.00;96957.69;5019327;28;20226;-69
2023/03/19 08:47:58;;;;;;;15.67;14.17;;;;;;;8.22;100.00;96952.41;5013269;28;20798;-69
2023/03/19 08:50:27;;;;;;;14.83;13.50;;;;;;;8.09;100.00;96957.44;4971713;28;20211;-67
2023/03/19 08:52:56;;;;;;;13.73;12.53;;;;;;;8.32;100.00;96943.44;5015536;28;20578;-71
2023/03/19 08:55:24;;;;;;;14.50;13.00;;;;;;;7.87;100.00;96938.75;5007617;28;20215;-70
2023/03/19 08:57:51;;;;;;;13.30;12.07;;;;;;;8.32;100.00;96941.63;5032029;28;20251;-70
2023/03/19 09:00:20;;;;;;;13.23;12.07;;;;;;;8.45;100.00;96942.84;5007984;28;20916;-70
2023/03/19 09:02:49;;;;;;;12.83;11.70;;;;;;;8.01;100.00;96949.59;5032862;28;20231;-68
2023/03/19 09:05:19;;;;;;;12.43;11.33;;;;;;;7.99;100.00;96952.38;4987239;28;20780;-69
2023/03/19 09:07:46;;;;;;;15.07;13.60;;;;;;;7.70;100.00;96945.91;5032569;28;20786;-68
2023/03/19 09:10:14;;;;;;;13.07;11.87;;;;;;;7.81;100.00;96953.47;5005571;28;20229;-69
2023/03/19 09:12:41;;;;;;;12.83;11.60;;;;;;;7.59;100.00;96964.75;5010624;28;20238;-69
2023/03/19 09:15:09;;;;;;;12.90;11.70;;;;;;;7.61;100.00;96954.88;5007423;28;20455;-69
2023/03/19 09:17:37;;;;;;;12.40;11.23;;;;;;;7.74;100.00;96962.22;5034581;28;20257;-68
2023/03/19 09:20:09;;;;;;;11.63;10.53;;;;;;;8.13;100.00;96963.19;5004843;28;20858;-69
2023/03/19 09:22:37;;;;;;;11.97;10.87;;;;;;;8.38;100.00;96969.97;5038770;28;20230;-69
2023/03/19 09:25:05;;;;;;;12.80;10.73;;;;;;;8.40;100.00;96967.16;5023061;28;20527;-69
2023/03/19 09:27:33;;;;;;;10.97;10.00;;;;;;;8.08;100.00;96961.88;5017580;28;20715;-70
2023/03/19 09:30:00;;;;;;;11.67;10.67;;;;;;;8.34;100.00;96968.66;5037199;28;20696;-70
2023/03/19 09:32:28;;;;;;;11.70;10.60;;;;;;;8.62;100.00;96970.81;5031529;28;20438;-70
2023/03/19 09:34:56;;;;;;;11.90;10.80;;;;;;;8.45;100.00;96962.16;5022194;28;20663;-69
2023/03/19 09:37:26;;;;;;;12.37;11.20;;;;;;;8.65;100.00;96977.56;5001992;28;20659;-69
2023/03/19 09:39:53;;;;;;;12.07;11.00;;;;;;;9.01;100.00;96965.56;5018402;28;20655;-69
2023/03/19 09:42:32;;;;;;;12.47;11.37;;;;;;;9.11;100.00;96966.94;4998027;28;20226;-69
2023/03/19 09:45:00;;;;;;;15.07;13.57;;;;;;;9.10;100.00;96970.59;5040271;28;20214;-70
2023/03/19 09:47:30;;;;;;;12.27;11.23;;;;;;;9.65;100.00;96965.06;5043273;28;20437;-69
2023/03/19 09:50:01;;;;;;;11.20;10.20;;;;;;;9.78;100.00;96966.22;5037691;28;20286;-70
2023/03/19 09:52:36;;;;;;;12.17;11.07;;;;;;;9.87;100.00;96972.25;4976895;28;20774;-69
2023/03/19 09:55:10;;;;;;;14.70;12.37;;;;;;;9.66;100.00;96971.16;4979591;28;20225;-69
2023/03/19 09:57:38;;;;;;;12.57;11.20;;;;;;;9.75;100.00;96980.66;4996688;28;20925;-69
2023/03/19 10:00:19;;;;;;;11.33;10.30;;;;;;;9.90;100.00;96982.44;5009988;28;20586;-69
2023/03/19 10:02:49;;;;;;;11.37;10.27;;;;;;;10.00;100.00;96980.34;5036665;28;20408;-68
2023/03/19 10:05:24;;;;;;;11.20;10.20;;;;;;;10.14;100.00;96970.72;5040385;28;20206;-69
2023/03/19 10:08:03;;;;;;;10.87;9.87;;;;;;;10.65;100.00;96975.16;4984227;28;20260;-68
2023/03/19 10:10:42;;;;;;;11.47;10.47;;;;;;;10.36;100.00;96981.34;5006601;28;20313;-68
2023/03/19 10:13:18;;;;;;;11.43;10.33;;;;;;;10.56;100.00;96973.66;4997991;28;20195;-69
2023/03/19 10:15:46;;;;;;;11.67;10.50;;;;;;;10.51;99.20;96976.03;5015540;28;20211;-68
2023/03/19 10:18:17;;;;;;;12.27;11.10;;;;;;;10.43;100.00;96987.56;5040709;28;20509;-68
2023/03/19 10:20:49;;;;;;;11.70;10.57;;;;;;;10.12;100.00;96986.81;5034138;28;20734;-69
2023/03/19 10:23:37;;;;;;;10.50;9.40;;;;;;;10.57;100.00;96991.97;4977147;28;20238;-69
2023/03/19 10:26:08;;;;;;;11.80;10.67;;;;;;;10.59;100.00;96997.09;5039459;28;20202;-70
2023/03/19 10:28:37;;;;;;;13.73;12.33;;;;;;;10.60;100.00;97005.88;4950981;28;20888;-70
2023/03/19 10:31:13;;;;;;;14.10;12.70;;;;;;;10.79;100.00;97001.75;5038604;28;20790;-70
2023/03/19 10:33:45;;;;;;;11.40;10.20;;;;;;;11.16;96.84;96989.22;5023973;28;20563;-70
2023/03/19 10:36:13;;;;;;;11.63;10.53;;;;;;;10.87;97.89;96999.00;5033196;28;20213;-69
2023/03/19 10:38:44;;;;;;;9.10;8.40;;;;;;;10.89;99.08;96998.81;4984039;28;20563;-69
2023/03/19 10:41:21;;;;;;;11.27;10.27;;;;;;;10.82;98.97;96994.28;5036230;28;20234;-70
2023/03/19 10:43:52;;;;;;;9.80;8.90;;;;;;;10.87;99.78;96996.34;4999066;28;20390;-71
2023/03/19 10:46:21;;;;;;;10.40;9.50;;;;;;;11.37;97.40;96990.22;5034877;28;20207;-71
2023/03/19 10:48:49;;;;;;;10.63;9.73;;;;;;;11.54;94.72;96990.72;5039298;28;20410;-69
2023/03/19 10:51:21;;;;;;;9.30;8.40;;;;;;;11.80;91.96;96999.88;5038004;28;20203;-70
2023/03/19 10:53:52;;;;;;;6.97;6.37;;;;;;;11.75;89.93;96987.16;4981491;28;20349;-69
2023/03/19 10:56:21;;;;;;;6.93;5.73;;;;;;;11.66;89.83;96994.47;5007999;28;20206;-70
2023/03/19 10:58:57;;;;;;;4.73;4.33;;;;;;;11.42;89.30;96993.09;5014348;28;20741;-71
2023/03/19 11:01:32;;;;;;;4.43;4.03;;;;;;;11.12;91.41;96987.97;5028190;28;20718;-71
2023/03/19 11:04:01;;;;;;;4.13;3.83;;;;;;;10.85;93.48;96987.78;5028287;28;20247;-71
2023/03/19 11:06:32;;;;;;;5.40;5.00;;;;;;;10.52;95.26;96962.59;5027129;28;20320;-71
2023/03/19 11:09:12;;;;;;;5.30;4.80;;;;;;;10.54;96.68;96967.72;4986531;28;20258;-70
2023/03/19 11:11:44;;;;;;;5.13;4.20;;;;;;;10.79;97.92;96983.22;5033036;28;20556;-71
2023/03/19 11:14:16;;;;;;;4.40;4.00;;;;;;;10.81;98.81;96989.19;4996555;28;20426;-69
2023/03/19 11:16:51;;;;;;;4.40;3.90;;;;;;;10.74;98.57;96969.72;5040235;28;20520;-71
2023/03/19 11:19:21;;;;;;;4.20;3.77;;;;;;;10.94;100.00;96986.63;5014027;28;20727;-71
2023/03/19 11:22:13;;;;;;;5.13;4.63;;;;;;;10.95;100.00;96985.63;5031779;28;20222;-70
2023/03/19 11:24:48;;;;;;;4.60;4.30;;;;;;;11.15;99.96;96983.13;4987579;28;20210;-71
2023/03/19 11:27:16;;;;;;;4.87;4.53;;;;;;;11.25;98.25;96972.19;5042951;28;20500;-72